createdAt,value
2023-05-14T00:00:58.088Z,28.90
2023-05-14T00:03:18.109Z,23.25
2023-05-14T00:05:20.525Z,33.55
2023-05-14T00:07:31.326Z,26.75
2023-05-14T00:09:36.329Z,26.05
2023-05-14T00:11:57.953Z,26.50
2023-05-14T00:14:02.781Z,23.30
2023-05-14T00:16:05.827Z,27.67
2023-05-14T00:18:27.484Z,26.35
2023-05-14T00:20:31.603Z,22.67
2023-05-14T00:22:41.343Z,27.20
2023-05-14T00:24:52.151Z,27.25
2023-05-14T00:27:03.249Z,24.92
2023-05-14T00:29:07.599Z,26.25
2023-05-14T00:31:11.027Z,26.77
2023-05-14T00:33:17.344Z,32.33
2023-05-14T00:35:22.306Z,29.37
2023-05-14T00:37:25.725Z,30.63
2023-05-14T00:39:31.636Z,30.60
2023-05-14T00:41:35.062Z,28.45
2023-05-14T00:43:41.445Z,30.90
2023-05-14T00:45:48.779Z,25.58
2023-05-14T00:47:54.978Z,33.85
2023-05-14T00:50:01.503Z,29.40
2023-05-14T00:52:07.802Z,28.50
2023-05-14T00:54:20.774Z,27.50
2023-05-14T00:56:27.843Z,30.73
2023-05-14T00:58:33.585Z,32.45
2023-05-14T01:00:37.253Z,30.45
2023-05-14T01:02:40.508Z,28.10
2023-05-14T01:04:44.365Z,27.48
2023-05-14T01:07:05.560Z,30.08
2023-05-14T01:09:26.369Z,28.17
2023-05-14T01:11:41.057Z,30.42
2023-05-14T01:13:53.168Z,30.63
2023-05-14T01:15:59.730Z,27.95
2023-05-14T01:18:09.100Z,31.70
2023-05-14T01:20:30.622Z,31.23
2023-05-14T01:22:34.929Z,32.38
2023-05-14T01:24:36.415Z,26.90
2023-05-14T01:26:38.249Z,41.65
2023-05-14T01:28:39.912Z,28.10
2023-05-14T01:30:53.962Z,29.75
2023-05-14T01:32:58.173Z,31.30
2023-05-14T01:35:18.956Z,35.13
2023-05-14T01:37:24.656Z,31.70
2023-05-14T01:39:26.667Z,34.08
2023-05-14T01:41:29.250Z,32.88
2023-05-14T01:43:49.319Z,27.42
2023-05-14T01:45:55.485Z,27.83
2023-05-14T01:47:59.960Z,29.90
2023-05-14T01:50:04.324Z,29.85
2023-05-14T01:52:07.330Z,28.95
2023-05-14T01:54:11.795Z,30.95
2023-05-14T01:56:13.236Z,30.00
2023-05-14T01:58:14.668Z,33.63
2023-05-14T02:00:16.246Z,33.67
2023-05-14T02:02:36.474Z,34.47
2023-05-14T02:04:40.934Z,33.58
2023-05-14T02:06:42.423Z,34.15
2023-05-14T02:10:50.882Z,34.78
2023-05-14T02:12:56.074Z,32.30
2023-05-14T02:15:00.081Z,31.23
2023-05-14T02:17:04.388Z,32.58
2023-05-14T02:19:06.453Z,33.25
2023-05-14T02:21:07.995Z,30.30
2023-05-14T02:25:13.383Z,30.85
2023-05-14T02:27:17.734Z,35.80
2023-05-14T02:31:23.319Z,38.40
2023-05-14T02:33:28.384Z,41.97
2023-05-14T02:35:32.967Z,33.65
2023-05-14T02:37:34.859Z,34.95
2023-05-14T02:39:36.313Z,35.47
2023-05-14T02:41:40.713Z,33.30
2023-05-14T02:43:45.085Z,33.50
2023-05-14T02:45:47.003Z,39.45
2023-05-14T02:47:51.027Z,36.42
2023-05-14T02:49:55.292Z,34.58
2023-05-14T02:52:00.879Z,33.75
2023-05-14T02:54:02.287Z,33.95
2023-05-14T02:56:03.831Z,34.90
2023-05-14T02:58:05.272Z,36.38
2023-05-14T03:00:09.931Z,34.97
2023-05-14T03:02:11.896Z,39.75
2023-05-14T03:04:16.600Z,37.00
2023-05-14T03:06:20.968Z,32.72
2023-05-14T03:08:22.434Z,33.47
2023-05-14T03:12:30.841Z,35.00
2023-05-14T03:14:35.246Z,36.15
2023-05-14T03:16:36.835Z,37.33
2023-05-14T03:18:38.294Z,37.13
2023-05-14T03:20:42.572Z,38.10
2023-05-14T03:22:44.070Z,37.00
2023-05-14T03:26:53.131Z,35.38
2023-05-14T03:28:57.458Z,34.78
2023-05-14T03:31:08.370Z,38.47
2023-05-14T03:33:20.893Z,35.65
2023-05-14T03:37:33.959Z,38.10
2023-05-14T03:39:42.549Z,31.00
2023-05-14T03:41:54.380Z,38.05
2023-05-14T03:44:04.078Z,35.33
2023-05-14T03:46:12.418Z,34.08
2023-05-14T03:48:22.344Z,38.40
2023-05-14T03:50:34.000Z,38.22
2023-05-14T03:52:47.262Z,34.95
2023-05-14T03:54:58.949Z,34.35
2023-05-14T03:57:08.362Z,37.70
2023-05-14T03:59:11.547Z,37.10
2023-05-14T04:01:15.620Z,41.95
2023-05-14T04:03:19.899Z,34.20
2023-05-14T04:05:21.496Z,37.40
2023-05-14T04:07:25.586Z,35.55
2023-05-14T04:09:30.423Z,35.72
2023-05-14T04:11:34.487Z,39.03
2023-05-14T04:13:36.070Z,34.97
2023-05-14T04:15:40.368Z,32.55
2023-05-14T04:17:41.928Z,38.58
2023-05-14T04:21:47.513Z,36.92
2023-05-14T04:23:51.638Z,39.20
2023-05-14T04:25:53.104Z,42.70
2023-05-14T04:27:54.568Z,40.30
2023-05-14T04:30:14.831Z,45.05
2023-05-14T04:32:16.645Z,40.50
2023-05-14T04:34:20.925Z,41.83
2023-05-14T04:36:22.451Z,40.63
2023-05-14T04:38:23.920Z,42.13
2023-05-14T04:40:28.144Z,42.72
2023-05-14T04:42:32.566Z,45.53
2023-05-14T04:44:37.715Z,44.80
2023-05-14T04:46:39.510Z,40.88
2023-05-14T04:48:43.692Z,43.05
2023-05-14T04:52:52.311Z,42.97
2023-05-14T04:54:56.929Z,39.78
2023-05-14T04:57:03.068Z,36.50
2023-05-14T04:59:07.212Z,37.35
2023-05-14T05:01:09.229Z,41.28
2023-05-14T05:03:13.672Z,42.45
2023-05-14T05:05:17.845Z,47.13
2023-05-14T05:07:22.430Z,42.10
2023-05-14T05:09:26.749Z,38.10
2023-05-14T05:11:47.033Z,46.70
2023-05-14T05:13:48.708Z,43.15
2023-05-14T05:15:53.008Z,44.97
2023-05-14T05:17:57.376Z,46.75
2023-05-14T05:19:58.816Z,39.92
2023-05-14T05:22:00.327Z,40.28
2023-05-14T05:26:08.712Z,44.50
2023-05-14T05:28:10.178Z,38.08
2023-05-14T05:30:14.447Z,45.50
2023-05-14T05:32:16.069Z,46.13
2023-05-14T05:34:17.674Z,46.78
2023-05-14T05:36:37.564Z,47.40
2023-05-14T05:38:57.314Z,45.22
2023-05-14T05:43:03.166Z,41.63
2023-05-14T05:45:07.841Z,44.20
2023-05-14T05:47:09.437Z,41.35
2023-05-14T05:49:13.780Z,44.97
2023-05-14T05:51:34.013Z,43.03
2023-05-14T05:53:38.124Z,41.20
2023-05-14T05:55:42.521Z,53.53
2023-05-14T05:57:43.956Z,41.13
2023-05-14T05:59:46.033Z,38.40
2023-05-14T06:01:50.455Z,44.80
2023-05-14T06:05:55.821Z,46.10
2023-05-14T06:07:57.246Z,44.95
2023-05-14T06:12:21.793Z,43.63
2023-05-14T06:14:23.354Z,41.60
2023-05-14T06:18:31.650Z,40.17
2023-05-14T06:20:34.289Z,39.60
2023-05-14T06:22:38.717Z,37.85
2023-05-14T06:24:40.236Z,41.28
2023-05-14T06:26:44.724Z,37.22
2023-05-14T06:28:46.257Z,37.22
2023-05-14T06:30:49.767Z,37.15
2023-05-14T06:32:53.766Z,36.40
2023-05-14T06:35:02.181Z,32.38
2023-05-14T06:37:14.691Z,35.10
2023-05-14T06:39:25.305Z,37.67
2023-05-14T06:41:43.643Z,32.33
2023-05-14T06:43:54.009Z,29.30
2023-05-14T06:46:08.877Z,30.20
2023-05-14T06:48:24.190Z,32.72
2023-05-14T06:50:54.785Z,35.00
2023-05-14T06:53:10.542Z,34.47
2023-05-14T06:55:22.787Z,36.08
2023-05-14T06:57:37.311Z,35.10
2023-05-14T06:59:48.242Z,33.88
2023-05-14T07:02:00.273Z,35.45
2023-05-14T07:04:15.844Z,37.25
2023-05-14T07:06:45.861Z,30.15
2023-05-14T07:09:07.073Z,33.20
2023-05-14T07:11:08.513Z,29.58
2023-05-14T07:13:12.924Z,30.83
2023-05-14T07:15:14.464Z,31.50
2023-05-14T07:17:19.019Z,31.00
2023-05-14T07:19:23.449Z,34.85
2023-05-14T07:21:43.651Z,33.25
2023-05-14T07:23:45.092Z,33.50
2023-05-14T07:27:50.840Z,36.38
2023-05-14T07:29:52.334Z,35.05
2023-05-14T07:34:00.602Z,34.75
2023-05-14T07:36:02.312Z,34.35
2023-05-14T07:38:05.796Z,34.47
2023-05-14T07:40:10.013Z,37.88
2023-05-14T07:42:19.532Z,31.10
2023-05-14T07:44:23.644Z,30.80
2023-05-14T07:46:25.845Z,32.38
2023-05-14T07:48:30.168Z,30.45
2023-05-14T07:50:34.686Z,31.77
2023-05-14T07:52:39.235Z,28.05
2023-05-14T07:54:40.737Z,25.38
2023-05-14T07:56:45.030Z,29.65
2023-05-14T07:58:46.885Z,28.40
2023-05-14T08:00:48.385Z,27.60
2023-05-14T08:02:53.030Z,25.05
2023-05-14T08:04:58.411Z,27.23
2023-05-14T08:07:02.752Z,21.90
2023-05-14T08:09:07.301Z,25.73
2023-05-14T08:11:11.779Z,26.15
2023-05-14T08:13:15.933Z,26.33
2023-05-14T08:15:20.095Z,22.38
2023-05-14T08:17:21.733Z,24.92
2023-05-14T08:19:27.400Z,24.83
2023-05-14T08:21:28.933Z,21.58
2023-05-14T08:23:30.530Z,22.38
2023-05-14T08:25:35.083Z,23.13
2023-05-14T08:27:37.826Z,21.98
2023-05-14T08:29:39.614Z,21.50
2023-05-14T08:31:43.989Z,25.02
2023-05-14T08:33:48.335Z,26.77
2023-05-14T08:35:54.039Z,23.05
2023-05-14T08:37:56.907Z,23.67
2023-05-14T08:40:01.547Z,22.80
2023-05-14T08:42:06.762Z,23.00
2023-05-14T08:44:14.485Z,22.88
2023-05-14T08:46:22.273Z,20.17
2023-05-14T08:48:26.778Z,18.88
2023-05-14T08:50:30.245Z,17.08
2023-05-14T08:52:35.099Z,16.17
2023-05-14T08:54:36.638Z,21.90
2023-05-14T08:56:41.860Z,16.63
2023-05-14T08:58:46.430Z,16.38
2023-05-14T09:01:07.068Z,15.98
2023-05-14T09:03:08.732Z,15.77
2023-05-14T09:05:13.194Z,14.25
2023-05-14T09:07:14.974Z,15.60
2023-05-14T09:09:16.573Z,15.63
2023-05-14T09:11:21.517Z,16.60
2023-05-14T09:13:22.964Z,15.32
2023-05-14T09:15:31.588Z,14.60
2023-05-14T09:17:33.509Z,14.18
2023-05-14T09:19:35.049Z,15.88
2023-05-14T09:21:36.645Z,14.98
2023-05-14T09:23:41.892Z,15.18
2023-05-14T09:25:43.316Z,13.95
2023-05-14T09:27:50.372Z,13.85
2023-05-14T09:30:11.565Z,13.85
2023-05-14T09:32:42.548Z,12.25
2023-05-14T09:35:22.484Z,13.35
2023-05-14T09:37:26.119Z,12.80
2023-05-14T09:39:29.838Z,10.93
2023-05-14T09:41:40.625Z,10.07
2023-05-14T09:43:51.089Z,12.63
2023-05-14T09:46:18.414Z,11.90
2023-05-14T09:48:24.104Z,10.50
2023-05-14T09:50:31.405Z,10.93
2023-05-14T09:52:42.692Z,9.82
2023-05-14T09:54:52.445Z,10.57
2023-05-14T09:57:00.897Z,11.32
2023-05-14T09:59:08.317Z,11.07
2023-05-14T10:01:16.664Z,11.27
2023-05-14T10:03:27.757Z,11.20
2023-05-14T10:05:42.449Z,9.20
2023-05-14T10:07:53.759Z,9.07
2023-05-14T10:10:07.435Z,9.20
2023-05-14T10:12:13.685Z,10.43
2023-05-14T10:14:20.997Z,10.38
2023-05-14T10:16:35.371Z,11.05
2023-05-14T10:18:41.120Z,9.05
2023-05-14T10:20:48.292Z,8.48
2023-05-14T10:23:08.326Z,8.77
2023-05-14T10:25:12.716Z,7.78
2023-05-14T10:27:15.208Z,7.50
2023-05-14T10:29:19.441Z,7.30
2023-05-14T10:31:43.733Z,6.80
2023-05-14T10:33:50.353Z,7.55
2023-05-14T10:35:55.081Z,7.53
2023-05-14T10:37:59.321Z,7.70
2023-05-14T10:40:06.313Z,6.22
2023-05-14T10:42:15.253Z,7.10
2023-05-14T10:44:16.891Z,6.53
2023-05-14T10:46:18.539Z,6.50
2023-05-14T10:48:23.834Z,5.47
2023-05-14T10:50:29.567Z,6.22
2023-05-14T10:52:35.131Z,6.05
2023-05-14T10:54:39.339Z,7.05
2023-05-14T10:56:43.529Z,5.85
2023-05-14T10:58:49.941Z,5.68
2023-05-14T11:00:55.478Z,6.63
2023-05-14T11:03:00.370Z,6.88
2023-05-14T11:05:05.940Z,6.55
2023-05-14T11:07:10.262Z,6.13
2023-05-14T11:09:12.965Z,6.05
2023-05-14T11:11:14.646Z,6.15
2023-05-14T11:13:16.840Z,7.22
2023-05-14T11:15:22.323Z,5.50
2023-05-14T11:17:27.188Z,4.28
2023-05-14T11:19:28.678Z,6.97
2023-05-14T11:21:30.523Z,4.85
2023-05-14T11:23:32.027Z,4.55
2023-05-14T11:25:33.447Z,5.38
2023-05-14T11:27:38.629Z,4.43
2023-05-14T11:29:43.392Z,4.03
2023-05-14T11:31:44.960Z,2.90
2023-05-14T11:34:07.158Z,4.30
2023-05-14T11:36:11.139Z,4.25
2023-05-14T11:38:16.429Z,3.45
2023-05-14T11:40:20.745Z,3.60
2023-05-14T11:42:23.667Z,4.68
2023-05-14T11:44:25.464Z,4.82
2023-05-14T11:46:28.507Z,5.32
2023-05-14T11:48:31.962Z,3.78
2023-05-14T11:50:36.640Z,4.65
2023-05-14T11:52:39.511Z,5.18
2023-05-14T11:54:42.078Z,4.30
2023-05-14T11:56:50.078Z,4.50
2023-05-14T11:58:58.373Z,4.35
2023-05-14T12:01:00.006Z,4.68
2023-05-14T12:03:04.184Z,4.28
2023-05-14T12:05:07.319Z,4.88
2023-05-14T12:07:12.728Z,5.40
2023-05-14T12:09:35.909Z,5.75
2023-05-14T12:11:56.099Z,5.30
2023-05-14T12:13:58.692Z,4.82
2023-05-14T12:16:20.857Z,4.50
2023-05-14T12:18:26.797Z,3.97
2023-05-14T12:20:31.369Z,3.25
2023-05-14T12:22:33.526Z,5.72
2023-05-14T12:26:57.438Z,5.93
2023-05-14T12:29:02.843Z,4.15
2023-05-14T12:31:04.642Z,7.03
2023-05-14T12:33:09.588Z,8.05
2023-05-14T12:35:11.220Z,7.75
2023-05-14T12:37:15.748Z,7.03
2023-05-14T12:39:17.608Z,7.45
2023-05-14T12:41:19.094Z,7.47
2023-05-14T12:43:24.342Z,8.02
2023-05-14T12:45:37.741Z,7.75
2023-05-14T12:47:50.007Z,6.70
2023-05-14T12:50:12.032Z,6.78
2023-05-14T12:52:47.997Z,7.05
2023-05-14T12:55:05.208Z,6.97
2023-05-14T12:57:16.714Z,6.93
2023-05-14T12:59:35.419Z,8.00
2023-05-14T13:02:14.850Z,10.05
2023-05-14T13:04:35.717Z,8.55
2023-05-14T13:06:52.476Z,9.30
2023-05-14T13:09:09.051Z,9.32
2023-05-14T13:11:25.992Z,9.55
2023-05-14T13:13:40.040Z,8.98
2023-05-14T13:15:53.603Z,9.25
2023-05-14T13:18:14.693Z,11.25
2023-05-14T13:20:43.195Z,10.02
2023-05-14T13:22:48.660Z,11.00
2023-05-14T13:24:50.251Z,10.23
2023-05-14T13:26:51.893Z,10.27
2023-05-14T13:28:53.344Z,11.10
2023-05-14T13:31:05.443Z,11.18
2023-05-14T13:33:07.099Z,9.48
2023-05-14T13:35:08.854Z,10.00
2023-05-14T13:37:10.939Z,9.73
2023-05-14T13:39:14.210Z,10.68
2023-05-14T13:41:19.143Z,8.48
2023-05-14T13:43:20.593Z,10.15
2023-05-14T13:45:25.067Z,9.88
2023-05-14T13:47:27.012Z,10.50
2023-05-14T13:49:28.617Z,9.63
2023-05-14T13:51:32.650Z,11.02
2023-05-14T13:53:34.115Z,11.60
2023-05-14T13:55:38.316Z,10.55
2023-05-14T13:57:43.109Z,11.15
2023-05-14T13:59:45.995Z,12.13
2023-05-14T14:01:49.544Z,13.85
2023-05-14T14:03:51.181Z,11.35
2023-05-14T14:05:55.458Z,14.00
2023-05-14T14:08:04.587Z,12.48
2023-05-14T14:10:21.664Z,11.57
2023-05-14T14:12:26.692Z,15.75
2023-05-14T14:14:28.299Z,13.18
2023-05-14T14:16:29.956Z,11.68
2023-05-14T14:18:34.506Z,13.07
2023-05-14T14:20:38.844Z,11.32
2023-05-14T14:22:44.160Z,11.43
2023-05-14T14:24:45.802Z,12.52
2023-05-14T14:27:05.796Z,13.15
2023-05-14T14:29:09.928Z,12.32
2023-05-14T14:31:11.510Z,13.00
2023-05-14T14:33:13.030Z,12.80
2023-05-14T14:35:17.806Z,12.38
2023-05-14T14:37:21.174Z,12.43
2023-05-14T14:39:25.374Z,11.50
2023-05-14T14:41:45.931Z,9.48
2023-05-14T14:43:50.675Z,10.63
2023-05-14T14:45:52.199Z,12.35
2023-05-14T14:48:13.735Z,10.27
2023-05-14T14:50:15.315Z,8.70
2023-05-14T14:52:16.834Z,10.73
2023-05-14T14:54:20.943Z,11.50
2023-05-14T14:56:26.873Z,8.88
2023-05-14T14:58:29.136Z,6.82
2023-05-14T15:00:30.619Z,6.75
2023-05-14T15:02:32.304Z,5.40
2023-05-14T15:04:34.743Z,4.40
2023-05-14T15:06:39.013Z,4.93
2023-05-14T15:08:40.499Z,3.47
2023-05-14T15:10:42.037Z,5.80
2023-05-14T15:12:46.109Z,8.45
2023-05-14T15:14:47.568Z,6.00
2023-05-14T15:16:51.934Z,5.70
2023-05-14T15:18:53.499Z,5.68
2023-05-14T15:20:55.894Z,8.85
2023-05-14T15:22:57.364Z,3.17
2023-05-14T15:25:01.842Z,2.90
2023-05-14T15:27:06.322Z,8.02
2023-05-14T15:29:07.837Z,3.80
2023-05-14T15:31:12.114Z,3.70
2023-05-14T15:33:19.639Z,9.52
2023-05-14T15:35:23.987Z,3.28
2023-05-14T15:37:26.025Z,8.75
2023-05-14T15:39:31.572Z,3.80
2023-05-14T15:41:34.422Z,3.58
2023-05-14T15:43:38.668Z,2.85
2023-05-14T15:45:40.070Z,5.82
2023-05-14T15:47:45.124Z,4.10
2023-05-14T15:49:49.658Z,4.18
2023-05-14T15:51:51.376Z,2.53
2023-05-14T15:53:57.243Z,4.70
2023-05-14T15:56:05.166Z,2.08
2023-05-14T15:58:10.013Z,2.92
2023-05-14T16:00:14.416Z,2.15
2023-05-14T16:02:19.322Z,2.88
2023-05-14T16:04:20.828Z,7.80
2023-05-14T16:06:22.336Z,8.13
2023-05-14T16:08:26.684Z,8.80
2023-05-14T16:10:47.090Z,14.40
2023-05-14T16:13:07.008Z,17.48
2023-05-14T16:15:27.130Z,18.92
2023-05-14T16:17:29.949Z,9.63
2023-05-14T16:19:38.685Z,12.75
2023-05-14T16:21:43.095Z,12.75
2023-05-14T16:23:47.444Z,10.43
2023-05-14T16:25:49.045Z,9.90
2023-05-14T16:27:50.667Z,13.30
2023-05-14T16:29:58.041Z,8.27
2023-05-14T16:31:59.637Z,8.02
2023-05-14T16:34:01.143Z,9.60
2023-05-14T16:36:08.183Z,9.20
2023-05-14T16:38:13.050Z,10.75
2023-05-14T16:40:20.268Z,8.68
2023-05-14T16:42:23.191Z,4.25
2023-05-14T16:44:28.913Z,5.07
2023-05-14T16:46:49.192Z,2.83
2023-05-14T16:48:53.495Z,3.67
2023-05-14T16:50:59.404Z,1.88
2023-05-14T16:53:03.758Z,2.40
2023-05-14T16:55:05.530Z,6.22
2023-05-14T16:57:26.465Z,4.47
2023-05-14T16:59:28.511Z,4.25
2023-05-14T17:01:30.598Z,9.02
2023-05-14T17:03:32.133Z,11.27
2023-05-14T17:05:36.246Z,9.57
2023-05-14T17:07:41.272Z,10.32
2023-05-14T17:09:42.737Z,14.15
2023-05-14T17:11:47.026Z,9.90
2023-05-14T17:13:48.442Z,10.82
2023-05-14T17:15:51.758Z,11.45
2023-05-14T17:17:55.626Z,11.43
2023-05-14T17:20:00.335Z,9.70
2023-05-14T17:22:03.970Z,12.90
2023-05-14T17:24:08.265Z,11.85
2023-05-14T17:26:11.096Z,12.35
2023-05-14T17:28:12.800Z,10.43
2023-05-14T17:30:14.265Z,14.43
2023-05-14T17:32:18.739Z,13.32
2023-05-14T17:34:20.242Z,12.63
2023-05-14T17:36:25.855Z,11.57
2023-05-14T17:38:45.847Z,11.65
2023-05-14T17:40:50.571Z,12.38
2023-05-14T17:42:52.049Z,13.13
2023-05-14T17:44:59.568Z,11.90
2023-05-14T17:47:04.801Z,12.75
2023-05-14T17:49:25.681Z,12.63
2023-05-14T17:51:28.173Z,12.93
2023-05-14T17:53:29.636Z,11.98
2023-05-14T17:55:39.911Z,12.60
2023-05-14T17:57:42.410Z,13.38
2023-05-14T17:59:44.030Z,12.73
2023-05-14T18:01:48.557Z,14.43
2023-05-14T18:03:50.084Z,13.43
2023-05-14T18:06:10.833Z,14.02
2023-05-14T18:08:15.453Z,14.55
2023-05-14T18:10:20.310Z,13.10
2023-05-14T18:12:22.814Z,12.68
2023-05-14T18:14:45.334Z,12.70
2023-05-14T18:16:47.204Z,13.38
2023-05-14T18:18:50.500Z,16.00
2023-05-14T18:20:55.666Z,14.13
2023-05-14T18:22:59.896Z,16.45
2023-05-14T18:25:01.327Z,16.15
2023-05-14T18:27:07.007Z,14.55
2023-05-14T18:29:11.526Z,17.83
2023-05-14T18:31:14.255Z,16.00
2023-05-14T18:33:18.815Z,14.93
2023-05-14T18:35:23.083Z,23.15
2023-05-14T18:37:43.796Z,16.50
2023-05-14T18:39:45.271Z,17.98
2023-05-14T18:41:46.758Z,18.40
2023-05-14T18:44:06.834Z,18.33
2023-05-14T18:46:08.480Z,19.30
2023-05-14T18:48:14.554Z,18.45
2023-05-14T18:50:17.061Z,21.85
2023-05-14T18:52:20.764Z,18.48
2023-05-14T18:54:24.023Z,18.92
2023-05-14T18:56:30.712Z,20.38
2023-05-14T18:58:37.294Z,20.00
2023-05-14T19:00:44.917Z,18.25
2023-05-14T19:03:06.415Z,19.50
2023-05-14T19:05:12.377Z,21.38
2023-05-14T19:07:18.460Z,94.75
2023-05-14T19:09:25.562Z,279.70
2023-05-14T19:11:32.177Z,248.13
2023-05-14T19:13:38.155Z,83.05
2023-05-14T19:15:44.684Z,45.60
2023-05-14T19:17:51.330Z,90.60
2023-05-14T19:19:54.754Z,36.60
2023-05-14T19:22:01.472Z,13.90
2023-05-14T19:24:04.820Z,7.40
2023-05-14T19:26:10.833Z,5.63
2023-05-14T19:28:14.492Z,13.02
2023-05-14T19:30:17.052Z,8.93
2023-05-14T19:32:21.601Z,10.73
2023-05-14T19:34:27.067Z,50.88
2023-05-14T19:36:32.241Z,48.08
2023-05-14T19:38:33.832Z,18.25
2023-05-14T19:40:37.991Z,55.30
2023-05-14T19:42:39.501Z,51.45
2023-05-14T19:44:40.973Z,22.15
2023-05-14T19:46:45.760Z,8.40
2023-05-14T19:48:48.470Z,39.35
2023-05-14T19:50:52.562Z,65.03
2023-05-14T19:52:53.972Z,3.47
2023-05-14T19:54:58.475Z,3.72
2023-05-14T19:57:03.480Z,3.38
2023-05-14T19:59:04.910Z,88.03
2023-05-14T20:01:24.920Z,16.52
2023-05-14T20:03:26.637Z,6.50
2023-05-14T20:05:28.394Z,2.70
2023-05-14T20:07:29.924Z,2.78
2023-05-14T20:09:31.457Z,8.25
2023-05-14T20:11:33.037Z,6.70
2023-05-14T20:13:40.168Z,14.57
2023-05-14T20:15:41.910Z,4.43
2023-05-14T20:17:46.242Z,7.40
2023-05-14T20:19:47.708Z,4.35
2023-05-14T20:21:52.133Z,2.47
2023-05-14T20:23:56.273Z,2.75
2023-05-14T20:25:57.675Z,23.52
2023-05-14T20:28:02.156Z,4.95
2023-05-14T20:30:06.848Z,1.52
2023-05-14T20:32:11.185Z,7.80
2023-05-14T20:34:12.596Z,4.00
2023-05-14T20:38:19.132Z,4.32
2023-05-14T20:40:21.462Z,5.50
2023-05-14T20:42:42.189Z,10.02
2023-05-14T20:44:44.514Z,8.07
2023-05-14T20:46:48.890Z,20.42
2023-05-14T20:48:56.472Z,9.88
2023-05-14T20:51:01.705Z,4.03
2023-05-14T20:53:21.824Z,25.58
2023-05-14T20:55:26.513Z,12.68
2023-05-14T20:57:31.233Z,6.50
2023-05-14T20:59:35.375Z,9.20
2023-05-14T21:01:36.850Z,10.82
2023-05-14T21:03:38.572Z,6.90
2023-05-14T21:05:43.744Z,17.80
2023-05-14T21:07:45.442Z,9.43
2023-05-14T21:09:52.426Z,10.65
2023-05-14T21:11:54.431Z,12.07
2023-05-14T21:13:56.038Z,11.75
2023-05-14T21:16:00.717Z,8.27
2023-05-14T21:18:05.309Z,4.30
2023-05-14T21:20:07.184Z,15.43
2023-05-14T21:22:08.647Z,13.68
2023-05-14T21:26:14.093Z,12.48
2023-05-14T21:28:18.415Z,21.95
2023-05-14T21:30:19.959Z,19.95
2023-05-14T21:32:22.242Z,8.23
2023-05-14T21:34:26.717Z,6.03
2023-05-14T21:36:31.169Z,29.80
2023-05-14T21:38:36.080Z,26.55
2023-05-14T21:40:40.886Z,14.73
2023-05-14T21:42:42.526Z,32.53
2023-05-14T21:44:44.004Z,19.95
2023-05-14T21:46:48.125Z,24.55
2023-05-14T21:49:08.338Z,2.30
2023-05-14T21:51:09.983Z,3.42
2023-05-14T21:53:14.213Z,2.85
2023-05-14T21:55:18.399Z,3.33
2023-05-14T21:57:22.999Z,3.38
2023-05-14T21:59:24.560Z,2.08
2023-05-14T22:01:28.606Z,2.80
2023-05-14T22:03:48.658Z,7.15
2023-05-14T22:05:53.277Z,14.77
2023-05-14T22:07:54.732Z,12.77
2023-05-14T22:10:05.940Z,6.07
2023-05-14T22:12:15.037Z,8.23
2023-05-14T22:14:25.040Z,6.28
2023-05-14T22:16:36.046Z,1.92
2023-05-14T22:18:45.362Z,2.38
2023-05-14T22:20:58.443Z,6.10
2023-05-14T22:23:06.154Z,3.45
2023-05-14T22:25:14.866Z,5.72
2023-05-14T22:27:25.467Z,12.15
2023-05-14T22:29:38.147Z,22.70
2023-05-14T22:31:46.382Z,30.23
2023-05-14T22:34:01.326Z,19.13
2023-05-14T22:36:13.849Z,12.63
2023-05-14T22:38:16.581Z,21.48
2023-05-14T22:40:18.024Z,19.38
2023-05-14T22:42:38.227Z,20.92
2023-05-14T22:44:42.279Z,16.30
2023-05-14T22:46:43.734Z,18.83
2023-05-14T22:48:49.270Z,8.05
2023-05-14T22:50:53.649Z,11.00
2023-05-14T22:52:55.089Z,26.58
2023-05-14T22:54:56.730Z,19.80
2023-05-14T22:57:00.957Z,8.80
2023-05-14T22:59:02.478Z,5.47
2023-05-14T23:03:08.036Z,18.10
2023-05-14T23:05:27.999Z,5.72
2023-05-14T23:07:32.253Z,6.00
2023-05-14T23:09:33.790Z,5.22
2023-05-14T23:11:35.348Z,6.55
2023-05-14T23:13:39.764Z,16.48
2023-05-14T23:15:44.176Z,31.77
2023-05-14T23:17:48.382Z,28.42
2023-05-14T23:19:53.073Z,31.52
2023-05-14T23:21:54.751Z,55.58
2023-05-14T23:23:58.979Z,56.63
2023-05-14T23:26:03.424Z,35.25
2023-05-14T23:28:05.104Z,72.25
2023-05-14T23:30:09.710Z,41.67
2023-05-14T23:32:11.271Z,149.88
2023-05-14T23:34:31.450Z,193.90
2023-05-14T23:36:51.637Z,128.60
2023-05-14T23:38:56.036Z,109.05
2023-05-14T23:41:00.435Z,124.05
2023-05-14T23:43:04.754Z,65.45
2023-05-14T23:45:25.234Z,72.00
2023-05-14T23:47:27.047Z,89.75
2023-05-14T23:49:31.493Z,58.40
2023-05-14T23:51:37.730Z,33.05
2023-05-14T23:53:39.178Z,9.48
2023-05-14T23:55:43.491Z,8.77
2023-05-14T23:58:03.706Z,6.03
